createdAt,value
2017-08-28T00:00:27.655Z,14.40
2017-08-28T00:02:55.118Z,14.40
2017-08-28T00:05:22.596Z,14.40
2017-08-28T00:07:50.051Z,14.50
2017-08-28T00:10:17.521Z,14.50
2017-08-28T00:12:44.988Z,14.50
2017-08-28T00:15:12.460Z,14.50
2017-08-28T00:17:39.940Z,14.50
2017-08-28T00:20:07.412Z,14.50
2017-08-28T00:22:34.877Z,14.50
2017-08-28T00:25:02.354Z,14.50
2017-08-28T00:27:29.825Z,14.50
2017-08-28T00:29:57.321Z,14.50
2017-08-28T00:32:24.785Z,14.40
2017-08-28T00:34:52.249Z,14.40
2017-08-28T00:37:19.730Z,14.40
2017-08-28T00:39:47.201Z,14.30
2017-08-28T00:42:14.675Z,14.30
2017-08-28T00:44:42.136Z,14.10
2017-08-28T00:47:09.614Z,14.10
2017-08-28T00:49:37.067Z,14.00
2017-08-28T00:52:04.542Z,14.00
2017-08-28T00:54:32.007Z,14.00
2017-08-28T00:56:59.470Z,13.90
2017-08-28T00:59:26.932Z,14.00
2017-08-28T01:01:54.461Z,14.00
2017-08-28T01:04:21.945Z,13.90
2017-08-28T01:06:49.420Z,13.90
2017-08-28T01:09:16.895Z,13.90
2017-08-28T01:11:44.361Z,13.90
2017-08-28T01:14:11.833Z,13.90
2017-08-28T01:16:39.304Z,13.90
2017-08-28T01:19:06.771Z,13.90
2017-08-28T01:21:34.236Z,13.70
2017-08-28T01:24:01.712Z,13.70
2017-08-28T01:26:29.190Z,13.70
2017-08-28T01:28:56.659Z,13.60
2017-08-28T01:31:24.124Z,13.60
2017-08-28T01:33:51.594Z,13.60
2017-08-28T01:36:19.060Z,13.60
2017-08-28T01:38:46.536Z,13.60
2017-08-28T01:41:13.990Z,13.60
2017-08-28T01:43:41.460Z,13.60
2017-08-28T01:46:08.932Z,13.70
2017-08-28T01:48:36.408Z,13.50
2017-08-28T01:51:03.877Z,13.50
2017-08-28T01:53:31.358Z,13.50
2017-08-28T01:55:58.820Z,13.50
2017-08-28T01:58:26.308Z,13.50
2017-08-28T02:00:53.778Z,13.40
2017-08-28T02:03:21.241Z,13.50
2017-08-28T02:05:48.723Z,13.50
2017-08-28T02:08:16.189Z,13.50
2017-08-28T02:10:43.667Z,13.50
2017-08-28T02:13:11.144Z,13.40
2017-08-28T02:15:38.627Z,13.40
2017-08-28T02:18:06.089Z,13.40
2017-08-28T02:20:33.559Z,13.40
2017-08-28T02:23:01.797Z,13.30
2017-08-28T02:25:29.267Z,13.30
2017-08-28T02:27:56.732Z,13.30
2017-08-28T02:30:24.200Z,13.30
2017-08-28T02:32:51.665Z,13.30
2017-08-28T02:35:19.141Z,13.20
2017-08-28T02:37:46.610Z,13.10
2017-08-28T02:40:14.082Z,13.10
2017-08-28T02:42:41.544Z,13.10
2017-08-28T02:45:09.028Z,13.10
2017-08-28T02:47:36.516Z,13.10
2017-08-28T02:50:04.764Z,13.10
2017-08-28T02:52:32.229Z,13.10
2017-08-28T02:54:59.695Z,13.10
2017-08-28T02:57:27.166Z,13.10
2017-08-28T02:59:54.640Z,13.00
2017-08-28T03:02:22.100Z,13.00
2017-08-28T03:04:49.587Z,13.00
2017-08-28T03:07:17.054Z,12.90
2017-08-28T03:09:44.520Z,12.90
2017-08-28T03:12:11.996Z,12.80
2017-08-28T03:14:39.460Z,12.80
2017-08-28T03:17:06.928Z,12.70
2017-08-28T03:19:34.388Z,12.70
2017-08-28T03:22:02.625Z,12.70
2017-08-28T03:24:30.091Z,12.70
2017-08-28T03:26:57.561Z,12.70
2017-08-28T03:29:25.027Z,12.70
2017-08-28T03:31:52.495Z,12.70
2017-08-28T03:34:19.959Z,12.70
2017-08-28T03:36:48.188Z,12.70
2017-08-28T03:39:15.653Z,12.70
2017-08-28T03:41:43.147Z,12.70
2017-08-28T03:44:11.377Z,12.70
2017-08-28T03:46:38.844Z,12.70
2017-08-28T03:49:06.329Z,12.70
2017-08-28T03:51:33.795Z,12.60
2017-08-28T03:54:01.264Z,12.60
2017-08-28T03:56:28.735Z,12.60
2017-08-28T03:58:56.200Z,12.60
2017-08-28T04:01:23.671Z,12.60
2017-08-28T04:03:51.146Z,12.60
2017-08-28T04:06:18.608Z,12.60
2017-08-28T04:08:46.084Z,12.60
2017-08-28T04:11:14.884Z,12.60
2017-08-28T04:13:42.358Z,12.60
2017-08-28T04:16:09.825Z,12.50
2017-08-28T04:18:37.291Z,12.50
2017-08-28T04:21:04.751Z,12.50
2017-08-28T04:23:32.230Z,12.40
2017-08-28T04:25:59.689Z,12.40
2017-08-28T04:28:27.162Z,12.40
2017-08-28T04:30:54.633Z,12.40
2017-08-28T04:33:22.108Z,12.30
2017-08-28T04:35:49.573Z,12.30
2017-08-28T04:38:17.068Z,12.40
2017-08-28T04:40:44.549Z,12.30
2017-08-28T04:43:12.014Z,12.30
2017-08-28T04:45:39.484Z,12.20
2017-08-28T04:48:06.955Z,12.00
2017-08-28T04:50:34.428Z,11.90
2017-08-28T04:53:01.887Z,12.00
2017-08-28T04:55:29.356Z,11.80
2017-08-28T04:57:56.815Z,11.80
2017-08-28T05:00:24.289Z,11.80
2017-08-28T05:02:51.752Z,11.70
2017-08-28T05:05:19.228Z,11.70
2017-08-28T05:07:46.692Z,11.70
2017-08-28T05:10:14.177Z,11.80
2017-08-28T05:12:41.638Z,11.90
2017-08-28T05:15:09.105Z,11.90
2017-08-28T05:17:36.569Z,11.90
2017-08-28T05:20:04.065Z,11.90
2017-08-28T05:22:31.519Z,12.00
2017-08-28T05:24:58.991Z,12.00
2017-08-28T05:27:26.457Z,12.10
2017-08-28T05:29:53.932Z,12.10
2017-08-28T05:32:21.392Z,12.10
2017-08-28T05:34:48.859Z,12.20
2017-08-28T05:37:16.336Z,12.20
2017-08-28T05:39:44.613Z,12.20
2017-08-28T05:42:12.084Z,12.30
2017-08-28T05:44:39.548Z,12.30
2017-08-28T05:47:07.017Z,12.40
2017-08-28T05:49:34.477Z,12.50
2017-08-28T05:52:01.955Z,12.60
2017-08-28T05:54:29.424Z,12.60
2017-08-28T05:56:56.892Z,12.70
2017-08-28T05:59:24.352Z,12.80
2017-08-28T06:01:51.909Z,12.90
2017-08-28T06:04:19.376Z,13.00
2017-08-28T06:06:46.856Z,13.00
2017-08-28T06:09:14.324Z,13.20
2017-08-28T06:11:42.605Z,13.30
2017-08-28T06:14:10.069Z,13.40
2017-08-28T06:16:37.552Z,13.50
2017-08-28T06:19:05.017Z,13.60
2017-08-28T06:21:32.476Z,13.70
2017-08-28T06:23:59.952Z,13.90
2017-08-28T06:26:27.430Z,14.00
2017-08-28T06:28:54.888Z,14.10
2017-08-28T06:31:22.356Z,14.30
2017-08-28T06:33:49.836Z,14.50
2017-08-28T06:36:17.317Z,14.60
2017-08-28T06:38:44.798Z,14.80
2017-08-28T06:41:12.259Z,15.00
2017-08-28T06:43:39.736Z,15.10
2017-08-28T06:46:07.196Z,15.20
2017-08-28T06:48:34.672Z,15.40
2017-08-28T06:51:02.142Z,15.50
2017-08-28T06:53:29.615Z,15.60
2017-08-28T06:55:57.080Z,15.70
2017-08-28T06:58:24.560Z,15.90
2017-08-28T07:00:52.032Z,16.10
2017-08-28T07:03:19.496Z,16.30
2017-08-28T07:05:46.964Z,16.40
2017-08-28T07:08:14.428Z,16.60
2017-08-28T07:10:41.896Z,16.80
2017-08-28T07:13:09.372Z,16.90
2017-08-28T07:15:36.832Z,17.00
2017-08-28T07:18:04.319Z,17.10
2017-08-28T07:20:31.781Z,17.30
2017-08-28T07:22:59.264Z,17.50
2017-08-28T07:25:26.727Z,17.60
2017-08-28T07:27:54.191Z,17.70
2017-08-28T07:30:21.667Z,17.90
2017-08-28T07:32:49.129Z,18.10
2017-08-28T07:35:16.604Z,18.20
2017-08-28T07:37:44.069Z,18.30
2017-08-28T07:40:11.546Z,18.50
2017-08-28T07:42:39.014Z,18.60
2017-08-28T07:45:06.492Z,18.80
2017-08-28T07:47:33.963Z,18.80
2017-08-28T07:50:01.436Z,18.80
2017-08-28T07:52:28.903Z,18.80
2017-08-28T07:54:56.383Z,18.90
2017-08-28T07:57:23.847Z,19.00
2017-08-28T07:59:51.316Z,19.30
2017-08-28T08:02:18.782Z,19.40
2017-08-28T08:04:46.251Z,19.60
2017-08-28T08:07:13.725Z,19.80
2017-08-28T08:09:41.192Z,20.00
2017-08-28T08:12:08.664Z,20.20
2017-08-28T08:14:36.125Z,20.30
2017-08-28T08:17:03.592Z,20.50
2017-08-28T08:19:31.065Z,20.70
2017-08-28T08:21:58.536Z,20.90
2017-08-28T08:24:26.000Z,20.90
2017-08-28T08:26:53.472Z,21.00
2017-08-28T08:29:20.946Z,21.20
2017-08-28T08:31:48.421Z,21.20
2017-08-28T08:34:21.521Z,21.40
2017-08-28T08:36:48.992Z,21.40
2017-08-28T08:39:16.462Z,21.60
2017-08-28T08:41:43.939Z,21.80
2017-08-28T08:44:11.405Z,22.00
2017-08-28T08:46:38.875Z,22.20
2017-08-28T08:49:06.342Z,22.20
2017-08-28T08:51:33.815Z,22.20
2017-08-28T08:54:01.279Z,22.30
2017-08-28T08:56:28.760Z,22.40
2017-08-28T08:58:56.237Z,22.40
2017-08-28T09:01:23.696Z,22.40
2017-08-28T09:03:51.172Z,22.50
2017-08-28T09:06:18.635Z,22.60
2017-08-28T09:08:46.107Z,22.70
2017-08-28T09:11:13.568Z,23.00
2017-08-28T09:13:41.048Z,23.40
2017-08-28T09:16:08.525Z,23.50
2017-08-28T09:18:35.992Z,23.50
2017-08-28T09:21:03.456Z,23.60
2017-08-28T09:23:30.932Z,23.60
2017-08-28T09:25:58.395Z,23.50
2017-08-28T09:28:25.870Z,23.50
2017-08-28T09:30:53.332Z,23.40
2017-08-28T09:33:20.803Z,23.50
2017-08-28T09:35:48.272Z,23.90
2017-08-28T09:38:15.743Z,24.20
2017-08-28T09:40:43.221Z,24.50
2017-08-28T09:43:10.696Z,24.70
2017-08-28T09:45:38.162Z,24.90
2017-08-28T09:48:05.636Z,24.70
2017-08-28T09:50:33.096Z,24.50
2017-08-28T09:53:01.332Z,24.60
2017-08-28T09:55:28.792Z,24.60
2017-08-28T09:57:56.268Z,24.70
2017-08-28T10:00:23.728Z,24.80
2017-08-28T10:02:51.207Z,24.70
2017-08-28T10:05:18.666Z,24.90
2017-08-28T10:07:46.140Z,25.00
2017-08-28T10:10:13.603Z,25.10
2017-08-28T10:12:41.080Z,25.20
2017-08-28T10:15:08.544Z,25.20
2017-08-28T10:17:36.013Z,25.00
2017-08-28T10:20:03.472Z,24.90
2017-08-28T10:22:30.944Z,25.00
2017-08-28T10:24:58.414Z,25.20
2017-08-28T10:27:25.396Z,25.10
2017-08-28T10:29:52.863Z,25.30
2017-08-28T10:32:20.333Z,25.40
2017-08-28T10:34:47.796Z,25.40
2017-08-28T10:37:15.265Z,25.70
2017-08-28T10:39:42.734Z,25.70
2017-08-28T10:42:10.224Z,25.70
2017-08-28T10:44:38.451Z,25.50
2017-08-28T10:47:05.924Z,25.50
2017-08-28T10:49:34.209Z,25.50
2017-08-28T10:52:01.680Z,25.70
2017-08-28T10:54:29.152Z,25.70
2017-08-28T10:56:56.614Z,26.20
2017-08-28T10:59:24.079Z,26.30
2017-08-28T11:01:51.555Z,26.40
2017-08-28T11:04:19.026Z,26.60
2017-08-28T11:06:46.488Z,26.30
2017-08-28T11:09:13.964Z,26.10
2017-08-28T11:11:41.896Z,26.00
2017-08-28T11:14:09.368Z,25.90
2017-08-28T11:16:36.833Z,26.10
2017-08-28T11:19:04.304Z,26.40
2017-08-28T11:21:31.771Z,26.40
2017-08-28T11:23:59.244Z,26.30
2017-08-28T11:26:26.719Z,26.50
2017-08-28T11:28:54.188Z,26.60
2017-08-28T11:31:21.656Z,26.70
2017-08-28T11:33:49.143Z,26.80
2017-08-28T11:36:16.608Z,26.90
2017-08-28T11:38:44.301Z,26.90
2017-08-28T11:41:11.772Z,27.10
2017-08-28T11:43:39.236Z,27.10
2017-08-28T11:46:06.708Z,27.10
2017-08-28T11:48:34.180Z,27.20
2017-08-28T11:51:01.657Z,27.10
2017-08-28T11:53:29.142Z,27.10
2017-08-28T11:55:56.601Z,27.30
2017-08-28T11:58:24.062Z,27.50
2017-08-28T12:00:51.529Z,27.30
2017-08-28T12:03:18.995Z,27.00
2017-08-28T12:05:46.463Z,26.80
2017-08-28T12:08:13.928Z,26.70
2017-08-28T12:10:41.401Z,26.70
2017-08-28T12:13:08.863Z,26.70
2017-08-28T12:15:36.332Z,26.70
2017-08-28T12:18:04.522Z,27.00
2017-08-28T12:20:32.006Z,27.30
2017-08-28T12:22:59.476Z,27.10
2017-08-28T12:25:26.941Z,26.90
2017-08-28T12:27:54.412Z,26.90
2017-08-28T12:30:21.890Z,26.70
2017-08-28T12:32:49.348Z,26.80
2017-08-28T12:35:16.819Z,26.80
2017-08-28T12:37:44.283Z,27.00
2017-08-28T12:40:11.757Z,27.00
2017-08-28T12:42:39.221Z,26.90
2017-08-28T12:45:06.699Z,27.10
2017-08-28T12:47:34.163Z,27.20
2017-08-28T12:50:01.624Z,27.40
2017-08-28T12:52:29.532Z,27.30
2017-08-28T12:54:56.987Z,27.20
2017-08-28T12:57:24.467Z,27.20
2017-08-28T12:59:51.923Z,27.20
2017-08-28T13:02:19.405Z,27.50
2017-08-28T13:04:46.872Z,27.60
2017-08-28T13:07:14.340Z,27.60
2017-08-28T13:09:41.803Z,27.70
2017-08-28T13:12:09.272Z,27.50
2017-08-28T13:14:36.743Z,27.20
2017-08-28T13:17:04.212Z,27.10
2017-08-28T13:19:31.684Z,27.00
2017-08-28T13:21:59.151Z,27.10
2017-08-28T13:24:26.620Z,27.30
2017-08-28T13:26:54.080Z,27.50
2017-08-28T13:29:21.553Z,27.50
2017-08-28T13:31:49.021Z,27.50
2017-08-28T13:34:16.488Z,27.20
2017-08-28T13:36:43.948Z,27.00
2017-08-28T13:39:11.424Z,26.90
2017-08-28T13:41:38.884Z,26.70
2017-08-28T13:44:06.356Z,26.40
2017-08-28T13:46:33.829Z,26.40
2017-08-28T13:49:01.296Z,26.60
2017-08-28T13:51:28.763Z,26.80
2017-08-28T13:53:56.249Z,26.90
2017-08-28T13:56:23.705Z,26.90
2017-08-28T13:58:51.183Z,26.90
2017-08-28T14:01:18.647Z,26.80
2017-08-28T14:03:46.129Z,26.80
2017-08-28T14:06:13.600Z,27.00
2017-08-28T14:08:41.076Z,27.10
2017-08-28T14:11:08.549Z,27.30
2017-08-28T14:13:36.025Z,27.40
2017-08-28T14:16:03.492Z,27.20
2017-08-28T14:18:30.968Z,27.10
2017-08-28T14:20:58.428Z,27.10
2017-08-28T14:23:25.906Z,27.10
2017-08-28T14:25:53.372Z,27.10
2017-08-28T14:28:20.848Z,27.20
2017-08-28T14:30:48.311Z,27.20
2017-08-28T14:33:15.785Z,27.30
2017-08-28T14:35:43.244Z,27.30
2017-08-28T14:38:10.716Z,27.30
2017-08-28T14:40:38.187Z,27.30
2017-08-28T14:43:05.656Z,27.20
2017-08-28T14:45:33.135Z,27.30
2017-08-28T14:48:00.598Z,27.30
2017-08-28T14:50:28.076Z,27.40
2017-08-28T14:52:55.540Z,27.10
2017-08-28T14:55:23.014Z,26.90
2017-08-28T14:57:50.485Z,26.90
2017-08-28T15:00:17.964Z,27.00
2017-08-28T15:02:45.437Z,27.20
2017-08-28T15:05:12.900Z,27.30
2017-08-28T15:07:40.376Z,27.40
2017-08-28T15:10:07.839Z,27.60
2017-08-28T15:12:35.321Z,27.70
2017-08-28T15:15:02.780Z,27.80
2017-08-28T15:17:30.252Z,27.80
2017-08-28T15:19:57.720Z,27.80
2017-08-28T15:22:25.192Z,27.60
2017-08-28T15:24:52.660Z,27.50
2017-08-28T15:27:20.149Z,27.50
2017-08-28T15:29:47.620Z,27.50
2017-08-28T15:32:15.097Z,27.50
2017-08-28T15:34:42.559Z,27.60
2017-08-28T15:37:10.039Z,27.60
2017-08-28T15:39:37.500Z,27.40
2017-08-28T15:42:04.973Z,27.40
2017-08-28T15:44:32.440Z,27.50
2017-08-28T15:46:59.911Z,27.40
2017-08-28T15:49:27.384Z,27.10
2017-08-28T15:51:54.868Z,27.00
2017-08-28T15:54:22.332Z,26.90
2017-08-28T15:56:49.806Z,26.70
2017-08-28T15:59:17.274Z,26.80
2017-08-28T16:01:44.745Z,26.70
2017-08-28T16:04:12.211Z,26.70
2017-08-28T16:06:39.689Z,26.70
2017-08-28T16:09:07.139Z,26.70
2017-08-28T16:11:34.621Z,26.60
2017-08-28T16:14:02.084Z,26.50
2017-08-28T16:16:29.560Z,26.50
2017-08-28T16:18:57.254Z,26.50
2017-08-28T16:21:24.761Z,26.30
2017-08-28T16:23:52.224Z,26.10
2017-08-28T16:26:19.701Z,26.00
2017-08-28T16:28:47.159Z,26.00
2017-08-28T16:31:14.632Z,25.70
2017-08-28T16:33:42.122Z,25.50
2017-08-28T16:36:09.592Z,25.30
2017-08-28T16:38:37.055Z,25.10
2017-08-28T16:41:04.560Z,24.90
2017-08-28T16:43:32.039Z,24.80
2017-08-28T16:45:59.517Z,24.60
2017-08-28T16:48:26.990Z,24.50
2017-08-28T16:50:54.464Z,24.50
2017-08-28T16:53:21.925Z,24.50
2017-08-28T16:55:49.383Z,24.40
2017-08-28T16:58:16.856Z,24.40
2017-08-28T17:00:44.329Z,24.30
2017-08-28T17:03:11.812Z,24.20
2017-08-28T17:05:39.664Z,24.00
2017-08-28T17:08:07.130Z,23.90
2017-08-28T17:10:34.593Z,23.80
2017-08-28T17:13:02.079Z,23.80
2017-08-28T17:15:29.547Z,23.70
2017-08-28T17:17:57.019Z,23.60
2017-08-28T17:20:24.488Z,23.60
2017-08-28T17:22:51.984Z,23.50
2017-08-28T17:25:19.452Z,23.50
2017-08-28T17:27:46.912Z,23.40
2017-08-28T17:30:14.389Z,23.40
2017-08-28T17:32:41.856Z,23.20
2017-08-28T17:35:09.331Z,23.10
2017-08-28T17:37:36.793Z,23.10
2017-08-28T17:40:05.040Z,22.80
2017-08-28T17:42:32.504Z,22.80
2017-08-28T17:44:59.977Z,22.70
2017-08-28T17:47:27.440Z,22.60
2017-08-28T17:49:54.917Z,22.40
2017-08-28T17:52:22.392Z,22.40
2017-08-28T17:57:23.792Z,22.30
2017-08-28T17:59:51.317Z,22.20
2017-08-28T18:02:18.809Z,22.10
2017-08-28T18:04:46.280Z,22.10
2017-08-28T18:07:13.740Z,22.00
2017-08-28T18:09:41.217Z,22.00
2017-08-28T18:12:08.675Z,21.90
2017-08-28T18:14:36.152Z,21.90
2017-08-28T18:17:03.621Z,21.80
2017-08-28T18:19:31.080Z,21.80
2017-08-28T18:21:58.548Z,21.70
2017-08-28T18:24:26.016Z,21.70
2017-08-28T18:26:53.484Z,21.50
2017-08-28T18:29:20.945Z,21.30
2017-08-28T18:31:48.415Z,21.20
2017-08-28T18:34:15.879Z,21.00
2017-08-28T18:36:43.368Z,21.00
2017-08-28T18:39:10.839Z,20.90
2017-08-28T18:41:38.323Z,20.80
2017-08-28T18:44:05.789Z,20.60
2017-08-28T18:46:33.264Z,20.40
2017-08-28T18:49:00.736Z,20.30
2017-08-28T18:51:28.211Z,20.20
2017-08-28T18:53:55.679Z,20.00
2017-08-28T18:56:24.077Z,20.00
2017-08-28T18:58:51.546Z,20.00
2017-08-28T19:01:19.011Z,20.00
2017-08-28T19:03:46.475Z,19.80
2017-08-28T19:06:13.944Z,19.80
2017-08-28T19:08:41.410Z,19.70
2017-08-28T19:11:08.880Z,19.60
2017-08-28T19:13:36.352Z,19.50
2017-08-28T19:16:03.822Z,19.50
2017-08-28T19:18:31.296Z,19.40
2017-08-28T19:20:58.759Z,19.30
2017-08-28T19:23:26.229Z,19.30
2017-08-28T19:25:53.692Z,19.30
2017-08-28T19:28:21.935Z,19.00
2017-08-28T19:30:49.395Z,19.00
2017-08-28T19:33:16.869Z,18.90
2017-08-28T19:35:44.378Z,18.80
2017-08-28T19:38:11.853Z,18.80
2017-08-28T19:40:39.316Z,18.70
2017-08-28T19:43:06.788Z,18.70
2017-08-28T19:45:34.258Z,18.60
2017-08-28T19:48:01.889Z,18.50
2017-08-28T19:50:29.383Z,18.50
2017-08-28T19:52:56.840Z,18.50
2017-08-28T19:55:24.316Z,18.40
2017-08-28T19:57:51.799Z,18.40
2017-08-28T20:00:19.288Z,18.30
2017-08-28T20:02:52.670Z,18.30
2017-08-28T20:05:20.140Z,18.20
2017-08-28T20:07:47.608Z,18.10
2017-08-28T20:10:15.076Z,17.90
2017-08-28T20:12:42.542Z,17.80
2017-08-28T20:15:10.013Z,17.90
2017-08-28T20:17:37.503Z,17.80
2017-08-28T20:20:05.182Z,17.80
2017-08-28T20:22:32.652Z,17.70
2017-08-28T20:25:00.143Z,17.70
2017-08-28T20:27:27.644Z,17.60
2017-08-28T20:29:55.151Z,17.60
2017-08-28T20:32:22.648Z,17.60
2017-08-28T20:34:50.128Z,17.50
2017-08-28T20:37:17.629Z,17.40
2017-08-28T20:39:45.087Z,17.30
2017-08-28T20:42:12.559Z,17.30
2017-08-28T20:44:40.027Z,17.30
2017-08-28T20:47:08.267Z,17.20
2017-08-28T20:49:35.748Z,17.20
2017-08-28T20:52:03.219Z,17.30
2017-08-28T20:54:30.712Z,17.20
2017-08-28T20:56:58.180Z,17.20
2017-08-28T20:59:25.639Z,17.00
2017-08-28T21:01:53.146Z,17.10
2017-08-28T21:04:20.610Z,17.00
2017-08-28T21:06:48.848Z,16.90
2017-08-28T21:09:16.312Z,16.90
2017-08-28T21:11:43.781Z,16.80
2017-08-28T21:14:11.248Z,16.80
2017-08-28T21:16:38.723Z,16.80
2017-08-28T21:19:06.184Z,16.70
2017-08-28T21:21:55.052Z,16.60
2017-08-28T21:24:22.527Z,16.50
2017-08-28T21:26:50.004Z,16.40
2017-08-28T21:29:17.466Z,16.40
2017-08-28T21:31:44.944Z,16.40
2017-08-28T21:34:12.400Z,16.40
2017-08-28T21:36:39.876Z,16.40
2017-08-28T21:39:08.499Z,16.30
2017-08-28T21:41:37.416Z,16.30
2017-08-28T21:44:04.886Z,16.30
2017-08-28T21:46:32.361Z,16.20
2017-08-28T21:48:59.827Z,16.10
2017-08-28T21:51:27.301Z,16.10
2017-08-28T21:53:54.772Z,16.10
2017-08-28T21:56:22.248Z,16.10
2017-08-28T21:58:49.716Z,16.10
2017-08-28T22:01:17.201Z,16.10
2017-08-28T22:03:44.729Z,16.00
2017-08-28T22:06:12.208Z,16.00
2017-08-28T22:08:39.699Z,16.00
2017-08-28T22:11:07.168Z,16.00
2017-08-28T22:13:34.643Z,15.90
2017-08-28T22:16:02.129Z,15.70
2017-08-28T22:18:29.611Z,15.60
2017-08-28T22:20:57.075Z,15.50
2017-08-28T22:23:24.553Z,15.50
2017-08-28T22:25:52.013Z,15.50
2017-08-28T22:28:19.497Z,15.50
2017-08-28T22:30:46.960Z,15.30
2017-08-28T22:33:14.427Z,15.20
2017-08-28T22:35:41.900Z,15.20
2017-08-28T22:38:09.371Z,15.20
2017-08-28T22:40:36.844Z,15.10
2017-08-28T22:43:04.304Z,15.10
2017-08-28T22:45:31.780Z,15.20
2017-08-28T22:47:59.239Z,15.20
2017-08-28T22:50:26.728Z,15.20
2017-08-28T22:52:54.188Z,15.20
2017-08-28T22:55:21.660Z,15.20
2017-08-28T22:57:49.129Z,15.10
2017-08-28T23:00:22.264Z,15.10
2017-08-28T23:02:49.728Z,15.10
2017-08-28T23:05:17.200Z,15.00
2017-08-28T23:07:44.670Z,15.00
2017-08-28T23:10:12.136Z,15.00
2017-08-28T23:12:39.613Z,15.00
2017-08-28T23:15:07.079Z,14.90
2017-08-28T23:17:34.554Z,14.80
2017-08-28T23:20:02.041Z,14.70
2017-08-28T23:22:29.500Z,14.70
2017-08-28T23:24:56.964Z,14.80
2017-08-28T23:27:24.431Z,14.70
2017-08-28T23:29:51.900Z,14.80
2017-08-28T23:32:19.367Z,14.60
2017-08-28T23:34:46.828Z,14.60
2017-08-28T23:37:14.319Z,14.60
2017-08-28T23:39:41.787Z,14.60
2017-08-28T23:42:09.263Z,14.60
2017-08-28T23:44:37.487Z,14.60
2017-08-28T23:47:04.955Z,14.60
2017-08-28T23:49:32.430Z,14.60
2017-08-28T23:51:59.897Z,14.60
2017-08-28T23:54:27.369Z,14.60
2017-08-28T23:56:54.836Z,14.70
2017-08-28T23:59:22.301Z,14.60
